Hare, Texas
Current Conditions -  °F | °C
As of 3:03 AM on Saturday 22 Nov 2014 (Local Time) from KGRK Reporting Station
Overcast Overcast  
Wind Chill: 64°   Ceiling: 700
Heat Index: 64°   Visibility: 9mi
Dew Point: 63°   Wind: 23mph
Humidity: 94%   Direction: 140°SE
Pressure: 30.03"   Gusts: NA
Location:  30.5793°N, 97.5096°W
Report Text: KGRK 220903Z AUTO 14020KT 9SM OVC007 18/17 A3003 RMK AO2
Loading
Personal Weather Stations






























Interactive Weather Map New forecast layout! Learn more

10-Day Weather Forecast

Advertisements
Track Severe Weather on mobile